x

Georgian Bay (45137) Wave Buoy

11:00pm - Mon 16th Jul 2018 All times are CDT. -5 hours from GMT.

  • Sig Wave height 1.0ft
  • Peak Period 3s
  • Wind
    13mph, 16mph gusts
  • Sea Temp 67°f
  • Air Temp 69°f
  • Sea Pressure 1009.9mb
  • Georgian Bay
  • Georgian Bay

More Historic Weather Station data

Upgrade to MSW Pro to gain access to the past 30 days of data for over 8000 Wavebouys and Weather Stations around the globe.

Join

Comparision Forecast

View Surf forecast
   
Mon 07/16 11:00pm 1ft 3s 13 16 mph 1009.9mb 67f 69f
10:00pm 1ft 3s 13 16 mph 1009.7mb 67f 70f
9:00pm 1ft 3s 11 13 mph 1009.1mb 67f 70f
8:00pm 1ft 3s 9 11 mph 1008.9mb 67f 68f
7:00pm 1.3ft 4s 7 9 mph 1008.7mb 67f 69f
6:00pm 1.6ft 4s 11 13 mph 1008.3mb 67f 69f
5:00pm 2ft 3s 11 13 mph 1008.3mb 67f 68f
4:00pm 1.6ft 3s 18 20 mph 1009.1mb 68f 69f
3:00pm 1.3ft 3s 16 18 mph 1008.6mb 68f 71f
2:00pm 1ft 3s 11 13 mph 1008.8mb 69f 72f
1:00pm 0.7ft 2s 9 9 mph 1009.6mb 69f 70f
12:00pm 0.7ft 2s 11 13 mph 1010.8mb 69f 71f
11:00am 0.7ft 2s 9 9 mph 1011.2mb 68f 70f
10:00am 0.3ft 2s 9 9 mph 1011.3mb 68f 70f
9:00am 0.3ft 2s 9 11 mph 1011.1mb 68f 70f
8:00am  -  2s 7 9 mph 1011.4mb 68f 70f
7:00am  -  3s 4 7 mph 1011.5mb 68f 69f
6:00am 0.3ft 2s 4 7 mph 1012mb 68f 69f
5:00am 0.3ft 2s 4 7 mph 1012.2mb 68f 69f
3:00am 0.3ft 2s 4 4 mph 1012.6mb 68f 69f
2:00am 0.3ft 2s 4 4 mph 1012.7mb 68f 69f
1:00am 0.3ft 2s 4 4 mph 1013mb 68f 69f
12:00am 0.3ft 2s 4 4 mph 1013.3mb 68f 69f
Sun 07/15 11:00pm 0.3ft 2s 4 4 mph 1013.5mb 68f 69f
10:00pm 0.3ft 3s 4 4 mph 1013.4mb 68f 69f
9:00pm 0.3ft 2s 4 7 mph 1013.5mb 68f 69f
8:00pm 0.3ft 2s 4 4 mph 1013.3mb 69f 69f
7:00pm 0.3ft 2s 4 7 mph 1013.3mb 69f 70f
6:00pm 0.3ft 2s 7 7 mph 1013.7mb 69f 70f
4:00pm 0.3ft 2s 4 7 mph 1014.8mb 70f 70f
3:00pm 0.3ft 3s 7 9 mph 1015.2mb 70f 70f
2:00pm 0.3ft 2s 7 7 mph 1015.3mb 69f 69f
1:00pm 0.3ft 2s 4 4 mph 1015.7mb 69f 69f
12:00pm 0.3ft 2s 4 4 mph 1015.8mb 69f 68f
11:00am 0.3ft 2s 2 4 mph 1015.7mb 68f 66f
10:00am 0.3ft 2s 7 7 mph 1015.9mb 67f 65f
9:00am 0.3ft 2s 7 9 mph 1015.9mb 67f 67f
7:00am 0.3ft 2s 7 9 mph 1016mb 66f 66f
6:00am 0.3ft 2s 7 7 mph 1015.8mb 66f 66f
5:00am 0.3ft 2s 7 7 mph 1016.1mb 66f 65f
4:00am 0.7ft 2s 7 9 mph 1015.8mb 66f 65f
3:00am 0.7ft 2s 7 9 mph 1016mb 66f 65f
2:00am 0.7ft 3s 9 9 mph 1016.1mb 66f 64f
1:00am 0.7ft 2s 11 11 mph 1015.5mb 66f 64f
12:00am 0.7ft 3s 9 9 mph 1015.8mb 66f 65f
Sat 07/14 11:00pm 0.7ft 2s 11 13 mph 1016.2mb 66f 65f
10:00pm 0.7ft 2s 9 13 mph 1015.9mb 66f 66f
9:00pm 0.7ft 2s 9 11 mph 1015.8mb 66f 67f
8:00pm 0.3ft 2s 4 7 mph 1015.5mb 67f 67f
7:00pm 0.7ft 2s 7 9 mph 1015mb 67f 67f
6:00pm 0.7ft 2s 7 9 mph 1015.4mb 67f 68f
5:00pm 0.7ft 2s 7 9 mph 1015.7mb 67f 68f
4:00pm 0.7ft 2s 7 9 mph 1016mb 67f 67f
3:00pm 0.7ft 2s 9 9 mph 1016.8mb 66f 67f
2:00pm 0.7ft 2s 7 9 mph 1017mb 66f 66f
1:00pm 0.3ft 2s 7 9 mph 1017.2mb 66f 66f
12:00pm 0.3ft 2s 7 9 mph 1017.6mb 65f 66f
11:00am 0.3ft 2s 9 11 mph 1017.8mb 65f 65f
10:00am 0.3ft 2s 2 4 mph 1017.1mb 65f 65f
9:00am 0.3ft 2s 4 4 mph 1016.9mb 65f 65f
8:00am 0.3ft 3s 2 4 mph 1017.2mb 65f 65f
7:00am 0.7ft 2s 4 4 mph 1017.2mb 65f 65f
6:00am 0.7ft 3s 7 9 mph 1017mb 65f 65f
5:00am 0.7ft 3s 4 7 mph 1016.6mb 65f 65f
4:00am 0.7ft 3s 7 7 mph 1016.4mb 65f 65f
3:00am 1ft 3s 9 9 mph 1016.4mb 65f 64f
2:00am 1ft 3s 9 11 mph 1016.3mb 65f 64f
1:00am 1ft 3s 13 18 mph 1016.5mb 65f 65f
12:00am 1.3ft 3s 9 11 mph 1016.8mb 65f 65f
Fri 07/13 11:00pm 1.6ft 4s 7 9 mph 1016.8mb 65f 66f
10:00pm 1.6ft 4s 9 11 mph 1016.7mb 65f 66f
9:00pm 1.6ft 4s 9 13 mph 1016.7mb 65f 67f
8:00pm 1.3ft 3s 13 13 mph 1016.1mb 65f 67f
7:00pm 1ft 3s 7 9 mph 1016.7mb 65f 69f
6:00pm 1ft 3s 9 11 mph 1016.8mb 65f 69f
5:00pm 1.3ft 3s 7 7 mph 1017mb 65f 67f
4:00pm 1.6ft 4s 7 9 mph 1017.5mb 65f 67f
3:00pm 1.6ft 4s 11 13 mph 1017.7mb 65f 67f
2:00pm 1.6ft 4s 11 13 mph 1018.2mb 65f 66f
1:00pm 2.5ft 4s 13 16 mph 1018.7mb 65f 65f
12:00pm 1.6ft 3s 16 20 mph 1019.2mb 65f 66f
11:00am 1.6ft 3s 13 16 mph 1019.5mb 65f 66f
10:00am 1.3ft 3s 13 18 mph 1019.5mb 65f 67f
9:00am 1.6ft 3s 13 16 mph 1019.4mb 65f 66f
8:00am 1.3ft 3s 13 13 mph 1019.5mb 65f 66f
7:00am 1.3ft 3s 13 13 mph 1020mb 65f 67f
6:00am 1ft 3s 13 13 mph 1019.9mb 65f 67f